createdAt,value
2022-09-05T00:00:36.971Z,99761.36
2022-09-05T00:03:47.911Z,99760.59
2022-09-05T00:06:58.863Z,99760.59
2022-09-05T00:10:10.967Z,99757.89
2022-09-05T00:13:25.000Z,99759.58
2022-09-05T00:16:37.683Z,99760.48
2022-09-05T00:24:27.972Z,99756.23
2022-09-05T00:24:30.780Z,99751.98
2022-09-05T00:26:50.106Z,99752.95
2022-09-05T00:31:50.748Z,99751.77
2022-09-05T00:33:32.270Z,99752.44
2022-09-05T00:36:41.190Z,99754.65
2022-09-05T00:39:47.915Z,99750.14
2022-09-05T00:43:06.953Z,99750.42
2022-09-05T00:46:15.379Z,99750.73
2022-09-05T00:49:23.786Z,99750.77
2022-09-05T00:52:32.342Z,99752.39
2022-09-05T00:55:40.526Z,99751.02
2022-09-05T00:58:59.624Z,99749.50
2022-09-05T01:02:08.048Z,99745.70
2022-09-05T01:05:21.542Z,99746.64
2022-09-05T01:08:37.474Z,99746.39
2022-09-05T01:11:53.818Z,99743.78
2022-09-05T01:15:06.019Z,99745.23
2022-09-05T01:18:17.772Z,99747.29
2022-09-05T01:21:38.697Z,99743.60
2022-09-05T01:25:05.524Z,99741.95
2022-09-05T01:29:16.218Z,99743.11
2022-09-05T01:31:47.236Z,99740.34
2022-09-05T01:35:05.919Z,99743.60
2022-09-05T01:38:12.394Z,99742.10
2022-09-05T01:41:21.776Z,99747.35
2022-09-05T01:44:32.194Z,99748.73
2022-09-05T01:47:47.342Z,99750.48
2022-09-05T01:50:55.952Z,99748.92
2022-09-05T01:54:23.769Z,99749.56
2022-09-05T01:57:38.858Z,99748.08
2022-09-05T02:00:49.447Z,99751.35
2022-09-05T02:04:00.003Z,99759.58
2022-09-05T02:07:30.606Z,99757.42
2022-09-05T02:10:40.822Z,99755.17
2022-09-05T02:13:58.716Z,99756.55
2022-09-05T02:17:23.684Z,99762.35
2022-09-05T02:20:46.594Z,99763.67
2022-09-05T02:23:54.608Z,99768.34
2022-09-05T02:27:10.888Z,99768.10
2022-09-05T02:30:37.550Z,99769.71
2022-09-05T02:34:01.724Z,99770.42
2022-09-05T02:37:10.785Z,99764.77
2022-09-05T02:45:10.694Z,99766.83
2022-09-05T02:45:14.210Z,99770.70
2022-09-05T02:47:14.457Z,99771.80
2022-09-05T02:53:59.231Z,99769.33
2022-09-05T02:57:37.051Z,99765.73
2022-09-05T02:58:06.605Z,99766.23
2022-09-05T03:01:09.452Z,99769.68
2022-09-05T03:04:23.531Z,99767.06
2022-09-05T03:07:46.242Z,99764.12
2022-09-05T03:11:05.428Z,99772.90
2022-09-05T03:14:35.797Z,99772.14
2022-09-05T03:17:53.603Z,99776.77
2022-09-05T03:21:17.791Z,99775.86
2022-09-05T03:24:41.708Z,99772.67
2022-09-05T03:28:22.531Z,99771.33
2022-09-05T03:31:39.449Z,99778.61
2022-09-05T03:34:55.061Z,99777.42
2022-09-05T03:38:10.263Z,99780.33
2022-09-05T03:41:23.813Z,99787.23
2022-09-05T03:44:46.935Z,99785.48
2022-09-05T03:48:02.375Z,99782.66
2022-09-05T03:57:06.641Z,99788.51
2022-09-05T03:57:25.240Z,99791.14
2022-09-05T03:58:59.093Z,99790.71
2022-09-05T04:07:54.761Z,99799.13
2022-09-05T04:08:19.113Z,99805.25
2022-09-05T04:09:03.156Z,99806.52
2022-09-05T04:12:16.731Z,99802.73
2022-09-05T04:15:30.192Z,99803.90
2022-09-05T04:18:38.686Z,99802.86
2022-09-05T04:21:48.221Z,99805.30
2022-09-05T04:25:00.086Z,99812.60
2022-09-05T04:28:12.479Z,99816.25
2022-09-05T04:31:25.114Z,99820.66
2022-09-05T04:34:36.727Z,99821.89
2022-09-05T04:37:55.379Z,99827.66
2022-09-05T04:41:01.701Z,99834.62
2022-09-05T04:44:08.332Z,99833.00
2022-09-05T04:47:15.725Z,99835.25
2022-09-05T04:50:23.608Z,99842.44
2022-09-05T04:53:37.027Z,99847.02
2022-09-05T04:56:44.085Z,99850.34
2022-09-05T05:04:49.412Z,99854.48
2022-09-05T05:06:17.541Z,99858.48
2022-09-05T05:06:51.937Z,99863.69
2022-09-05T05:10:45.325Z,99869.08
2022-09-05T05:17:58.993Z,99869.52
2022-09-05T05:18:15.329Z,99874.63
2022-09-05T05:20:43.026Z,99880.84
2022-09-05T05:23:51.884Z,99878.19
2022-09-05T05:26:59.051Z,99880.20
2022-09-05T05:30:04.879Z,99882.73
2022-09-05T05:33:12.449Z,99886.73
2022-09-05T05:36:19.407Z,99886.23
2022-09-05T05:39:26.002Z,99883.47
2022-09-05T05:42:30.591Z,99885.66
2022-09-05T05:45:35.356Z,99882.84
2022-09-05T05:48:42.131Z,99883.92
2022-09-05T05:52:02.302Z,99885.33
2022-09-05T05:55:50.734Z,99886.83
2022-09-05T05:58:53.645Z,99886.52
2022-09-05T06:02:11.727Z,99885.16
2022-09-05T06:05:29.762Z,99895.58
2022-09-05T06:12:44.984Z,99898.13
2022-09-05T06:15:06.636Z,99901.36
2022-09-05T06:16:29.907Z,99902.95
2022-09-05T06:21:24.033Z,99906.66
2022-09-05T06:23:39.256Z,99905.20
2022-09-05T06:27:00.906Z,99903.60
2022-09-05T06:30:07.257Z,99903.60
2022-09-05T06:33:16.804Z,99904.05
2022-09-05T06:36:31.219Z,99909.60
2022-09-05T06:39:50.127Z,99911.26
2022-09-05T06:43:05.969Z,99913.27
2022-09-05T06:46:45.895Z,99921.70
2022-09-05T06:49:59.169Z,99924.45
2022-09-05T06:53:27.460Z,99928.24
2022-09-05T06:56:39.322Z,99930.77
2022-09-05T07:00:04.186Z,99929.30
2022-09-05T07:03:20.542Z,99931.47
2022-09-05T07:06:48.159Z,99929.18
2022-09-05T07:09:59.685Z,99931.30
2022-09-05T07:13:10.293Z,99931.66
2022-09-05T07:16:18.022Z,99933.67
2022-09-05T07:19:45.671Z,99937.91
2022-09-05T07:22:55.837Z,99935.87
2022-09-05T07:26:51.617Z,99931.77
2022-09-05T07:30:00.604Z,99936.86
2022-09-05T07:33:06.409Z,99940.55
2022-09-05T07:36:13.060Z,99935.73
2022-09-05T07:39:28.713Z,99933.69
2022-09-05T07:42:38.714Z,99927.35
2022-09-05T07:45:52.240Z,99923.22
2022-09-05T07:49:02.868Z,99924.61
2022-09-05T07:56:50.806Z,99920.23
2022-09-05T07:56:58.643Z,99923.61
2022-09-05T07:59:08.722Z,99926.05
2022-09-05T08:02:13.609Z,99926.92
2022-09-05T08:05:21.574Z,99928.48
2022-09-05T08:08:52.172Z,99925.97
2022-09-05T08:12:15.312Z,99923.52
2022-09-05T08:15:23.069Z,99925.52
2022-09-05T08:18:33.346Z,99916.21
2022-09-05T08:21:43.044Z,99914.10
2022-09-05T08:24:54.517Z,99911.35
2022-09-05T08:28:06.421Z,99912.40
2022-09-05T08:31:12.050Z,99907.17
2022-09-05T08:34:31.404Z,99907.32
2022-09-05T08:37:44.698Z,99903.92
2022-09-05T08:40:52.781Z,99896.42
2022-09-05T08:46:42.292Z,99896.77
2022-09-05T08:47:45.828Z,99891.89
2022-09-05T08:51:07.035Z,99886.88
2022-09-05T08:54:30.950Z,99885.70
2022-09-05T08:57:53.159Z,99883.14
2022-09-05T09:01:04.814Z,99883.52
2022-09-05T09:04:52.460Z,99874.95
2022-09-05T09:07:52.521Z,99876.41
2022-09-05T09:10:59.599Z,99871.94
2022-09-05T09:14:30.659Z,99870.61
2022-09-05T09:17:45.859Z,99867.77
2022-09-05T09:20:52.943Z,99867.79
2022-09-05T09:24:04.641Z,99867.35
2022-09-05T09:27:15.181Z,99868.59
2022-09-05T09:30:24.066Z,99861.78
2022-09-05T09:33:35.264Z,99858.98
2022-09-05T09:36:54.979Z,99861.99
2022-09-05T09:43:52.710Z,99859.68
2022-09-05T09:46:58.135Z,99860.24
2022-09-05T09:50:17.726Z,99861.96
2022-09-05T09:53:29.890Z,99854.50
2022-09-05T09:56:56.882Z,99855.41
2022-09-05T10:00:07.458Z,99849.10
2022-09-05T10:08:07.512Z,99856.50
2022-09-05T10:10:45.282Z,99849.84
2022-09-05T10:11:24.508Z,99854.48
2022-09-05T10:14:42.134Z,99843.30
2022-09-05T10:18:04.621Z,99842.36
2022-09-05T10:21:29.846Z,99838.79
2022-09-05T10:24:47.044Z,99839.79
2022-09-05T10:28:00.757Z,99838.55
2022-09-05T10:34:20.332Z,99837.59
2022-09-05T10:35:15.251Z,99839.95
2022-09-05T10:38:12.575Z,99827.26
2022-09-05T10:41:22.380Z,99830.52
2022-09-05T10:44:34.041Z,99827.83
2022-09-05T10:47:42.662Z,99829.23
2022-09-05T10:50:51.005Z,99833.05
2022-09-05T10:54:04.407Z,99836.26
2022-09-05T10:57:20.654Z,99833.81
2022-09-05T11:02:27.827Z,99829.52
2022-09-05T11:04:20.412Z,99826.48
2022-09-05T11:07:32.659Z,99818.58
2022-09-05T11:10:39.016Z,99812.99
2022-09-05T11:13:47.773Z,99820.13
2022-09-05T11:16:53.579Z,99812.28
2022-09-05T11:20:02.691Z,99805.57
2022-09-05T11:23:11.369Z,99812.08
2022-09-05T11:26:25.605Z,99809.73
2022-09-05T11:29:35.803Z,99811.36
2022-09-05T11:37:30.743Z,99809.79
2022-09-05T11:40:09.796Z,99808.27
2022-09-05T11:40:31.573Z,99802.80
2022-09-05T11:44:03.801Z,99798.10
2022-09-05T11:47:44.166Z,99796.05
2022-09-05T11:51:05.534Z,99794.95
2022-09-05T11:54:28.282Z,99795.55
2022-09-05T11:57:42.225Z,99790.34
2022-09-05T12:00:49.077Z,99784.64
2022-09-05T12:04:08.527Z,99777.77
2022-09-05T12:11:02.538Z,99775.38
2022-09-05T12:14:21.133Z,99768.84
2022-09-05T12:17:35.510Z,99775.17
2022-09-05T12:20:45.677Z,99773.66
2022-09-05T12:24:40.834Z,99773.85
2022-09-05T12:27:38.933Z,99775.27
2022-09-05T12:31:32.307Z,99771.99
2022-09-05T12:36:05.777Z,99765.34
2022-09-05T12:40:55.232Z,99757.88
2022-09-05T12:41:46.106Z,99759.33
2022-09-05T12:44:52.637Z,99761.65
2022-09-05T12:48:00.921Z,99761.34
2022-09-05T12:51:09.978Z,99754.54
2022-09-05T12:54:32.717Z,99754.38
2022-09-05T13:02:58.281Z,99748.20
2022-09-05T13:03:13.063Z,99748.76
2022-09-05T13:05:01.999Z,99740.75
2022-09-05T13:08:13.414Z,99744.09
2022-09-05T13:14:49.976Z,99745.03
2022-09-05T13:15:07.923Z,99746.23
2022-09-05T13:18:16.894Z,99740.04
2022-09-05T13:21:23.552Z,99736.23
2022-09-05T13:24:32.346Z,99736.02
2022-09-05T13:27:40.890Z,99734.56
2022-09-05T13:35:42.204Z,99734.18
2022-09-05T13:38:15.623Z,99733.81
2022-09-05T13:38:41.934Z,99735.18
2022-09-05T13:41:27.313Z,99730.52
2022-09-05T13:44:36.149Z,99729.91
2022-09-05T13:47:54.629Z,99726.77
2022-09-05T13:51:05.138Z,99721.80
2022-09-05T13:54:18.763Z,99725.08
2022-09-05T13:57:31.627Z,99727.25
2022-09-05T14:00:54.001Z,99726.95
2022-09-05T14:05:05.430Z,99727.60
2022-09-05T14:07:51.457Z,99724.10
2022-09-05T14:11:09.321Z,99720.12
2022-09-05T14:15:08.417Z,99718.90
2022-09-05T14:18:21.624Z,99716.45
2022-09-05T14:21:28.101Z,99715.05
2022-09-05T14:24:34.948Z,99712.58
2022-09-05T14:27:42.878Z,99708.94
2022-09-05T14:33:04.390Z,99710.43
2022-09-05T14:37:42.238Z,99708.15
2022-09-05T14:38:09.410Z,99711.61
2022-09-05T14:41:37.405Z,99705.67
2022-09-05T14:44:55.230Z,99700.73
2022-09-05T14:48:13.283Z,99698.59
2022-09-05T14:51:28.882Z,99697.52
2022-09-05T15:02:48.046Z,99690.92
2022-09-05T15:02:49.948Z,99692.92
2022-09-05T15:04:57.196Z,99692.96
2022-09-05T15:08:28.949Z,99698.53
2022-09-05T15:12:19.928Z,99692.48
2022-09-05T15:15:12.121Z,99695.18
2022-09-05T15:18:20.674Z,99688.16
2022-09-05T15:21:33.871Z,99683.38
2022-09-05T15:24:39.710Z,99687.37
2022-09-05T15:27:44.621Z,99685.83
2022-09-05T15:30:58.968Z,99685.92
2022-09-05T15:34:19.423Z,99686.33
2022-09-05T15:37:25.275Z,99677.52
2022-09-05T15:40:29.826Z,99678.66
2022-09-05T15:43:34.880Z,99676.77
2022-09-05T15:46:47.077Z,99674.65
2022-09-05T15:49:55.016Z,99678.45
2022-09-05T15:52:59.764Z,99676.59
2022-09-05T15:56:17.588Z,99678.05
2022-09-05T15:59:23.477Z,99681.82
2022-09-05T16:02:29.355Z,99678.05
2022-09-05T16:10:35.846Z,99675.69
2022-09-05T16:10:41.558Z,99668.10
2022-09-05T16:12:35.989Z,99668.38
2022-09-05T16:19:17.104Z,99663.41
2022-09-05T16:23:32.500Z,99663.30
2022-09-05T16:23:32.822Z,99661.30
2022-09-05T16:26:08.053Z,99657.52
2022-09-05T16:29:22.662Z,99659.60
2022-09-05T16:32:32.290Z,99656.73
2022-09-05T16:35:39.705Z,99656.61
2022-09-05T16:38:49.781Z,99658.16
2022-09-05T16:41:57.374Z,99660.35
2022-09-05T16:45:04.552Z,99655.73
2022-09-05T16:48:16.994Z,99661.45
2022-09-05T16:51:35.188Z,99659.55
2022-09-05T16:54:42.735Z,99655.16
2022-09-05T16:57:58.029Z,99656.97
2022-09-05T17:01:26.287Z,99654.21
2022-09-05T17:04:35.058Z,99653.40
2022-09-05T17:07:56.845Z,99652.14
2022-09-05T17:11:12.120Z,99656.16
2022-09-05T17:14:21.882Z,99656.40
2022-09-05T17:18:18.610Z,99659.92
2022-09-05T17:20:58.186Z,99660.88
2022-09-05T17:29:26.138Z,99664.36
2022-09-05T17:29:31.261Z,99669.10
2022-09-05T17:34:40.372Z,99675.48
2022-09-05T17:38:11.592Z,99676.27
2022-09-05T17:41:28.461Z,99679.30
2022-09-05T17:44:38.973Z,99681.05
2022-09-05T17:47:48.612Z,99683.59
2022-09-05T17:50:54.218Z,99685.11
2022-09-05T17:54:16.349Z,99691.71
2022-09-05T17:57:41.208Z,99694.13
2022-09-05T18:01:05.655Z,99696.80
2022-09-05T18:04:16.419Z,99698.48
2022-09-05T18:07:42.682Z,99702.66
2022-09-05T18:11:02.410Z,99706.98
2022-09-05T18:14:35.224Z,99711.34
2022-09-05T18:17:53.173Z,99714.33
2022-09-05T18:21:21.366Z,99717.05
2022-09-05T18:24:33.489Z,99716.23
2022-09-05T18:28:06.581Z,99723.42
2022-09-05T18:31:41.196Z,99724.70
2022-09-05T18:34:47.734Z,99728.52
2022-09-05T18:38:08.943Z,99731.52
2022-09-05T18:41:21.646Z,99736.79
2022-09-05T18:44:28.135Z,99737.73
2022-09-05T18:47:36.316Z,99734.82
2022-09-05T18:51:13.299Z,99730.61
2022-09-05T18:54:22.564Z,99732.00
2022-09-05T18:57:31.713Z,99737.29
2022-09-05T19:00:48.479Z,99737.45
2022-09-05T19:03:54.142Z,99737.00
2022-09-05T19:06:59.715Z,99736.31
2022-09-05T19:10:35.610Z,99733.50
2022-09-05T19:13:41.130Z,99732.70
2022-09-05T19:16:48.435Z,99734.73
2022-09-05T19:20:30.878Z,99733.62
2022-09-05T19:23:37.082Z,99729.48
2022-09-05T19:26:41.770Z,99728.02
2022-09-05T19:36:50.443Z,99733.34
2022-09-05T19:37:04.345Z,99736.48
2022-09-05T19:37:30.075Z,99733.48
2022-09-05T19:47:11.021Z,99729.79
2022-09-05T19:47:39.635Z,99728.49
2022-09-05T19:47:55.889Z,99725.77
2022-09-05T19:50:51.647Z,99721.77
2022-09-05T19:54:05.297Z,99715.48
2022-09-05T19:57:15.912Z,99714.06
2022-09-05T20:00:24.773Z,99710.70
2022-09-05T20:03:35.457Z,99705.23
2022-09-05T20:06:44.094Z,99701.81
2022-09-05T20:09:49.536Z,99701.38
2022-09-05T20:12:54.492Z,99703.88
2022-09-05T20:16:02.129Z,99704.82
2022-09-05T20:19:06.898Z,99704.87
2022-09-05T20:22:47.674Z,99697.73
2022-09-05T20:25:40.030Z,99696.78
2022-09-05T20:28:45.808Z,99695.73
2022-09-05T20:31:50.654Z,99694.70
2022-09-05T20:36:45.318Z,99694.20
2022-09-05T20:43:21.347Z,99690.24
2022-09-05T20:43:22.292Z,99694.11
2022-09-05T20:45:35.372Z,99697.70
2022-09-05T20:54:06.526Z,99700.14
2022-09-05T20:54:25.246Z,99703.55
2022-09-05T20:55:41.325Z,99704.80
2022-09-05T20:58:50.298Z,99707.06
2022-09-05T21:01:59.170Z,99698.34
2022-09-05T21:05:10.111Z,99701.77
2022-09-05T21:08:35.584Z,99700.25
2022-09-05T21:11:40.548Z,99702.64
2022-09-05T21:14:46.512Z,99699.39
2022-09-05T21:17:51.350Z,99695.17
2022-09-05T21:20:56.992Z,99692.77
2022-09-05T21:24:15.827Z,99695.41
2022-09-05T21:27:24.858Z,99697.80
2022-09-05T21:30:31.147Z,99697.95
2022-09-05T21:33:44.976Z,99704.79
2022-09-05T21:36:59.209Z,99705.41
2022-09-05T21:40:12.633Z,99707.84
2022-09-05T21:47:33.548Z,99711.16
2022-09-05T21:47:38.727Z,99707.73
2022-09-05T21:50:06.540Z,99710.67
2022-09-05T21:55:51.745Z,99707.16
2022-09-05T21:59:25.803Z,99709.54
2022-09-05T22:00:11.247Z,99707.77
2022-09-05T22:03:18.168Z,99706.70
2022-09-05T22:06:23.266Z,99705.08
2022-09-05T22:09:27.934Z,99697.94
2022-09-05T22:12:36.119Z,99697.80
2022-09-05T22:15:40.864Z,99694.38
2022-09-05T22:18:47.995Z,99693.25
2022-09-05T22:21:53.351Z,99694.10
2022-09-05T22:25:02.061Z,99700.75
2022-09-05T22:28:08.950Z,99693.57
2022-09-05T22:31:13.355Z,99692.91
2022-09-05T22:34:17.833Z,99697.23
2022-09-05T22:37:22.555Z,99701.02
2022-09-05T22:40:27.047Z,99701.02
2022-09-05T22:43:34.581Z,99701.36
2022-09-05T22:46:39.076Z,99700.92
2022-09-05T22:49:43.610Z,99702.08
2022-09-05T22:52:48.037Z,99701.57
2022-09-05T22:55:58.341Z,99695.80
2022-09-05T22:59:03.678Z,99693.58
2022-09-05T23:02:08.129Z,99689.16
2022-09-05T23:05:13.190Z,99683.07
2022-09-05T23:08:17.834Z,99684.09
2022-09-05T23:11:22.362Z,99684.75
2022-09-05T23:14:26.802Z,99683.45
2022-09-05T23:17:31.376Z,99680.02
2022-09-05T23:20:35.823Z,99679.66
2022-09-05T23:23:41.416Z,99676.00
2022-09-05T23:26:45.906Z,99668.44
2022-09-05T23:29:50.338Z,99656.37
2022-09-05T23:32:54.962Z,99650.84
2022-09-05T23:36:01.843Z,99645.70
2022-09-05T23:39:06.461Z,99644.66
2022-09-05T23:42:10.956Z,99643.49
2022-09-05T23:45:15.615Z,99646.85
2022-09-05T23:48:20.072Z,99645.52
2022-09-05T23:51:24.911Z,99640.67
2022-09-05T23:54:29.356Z,99639.16
2022-09-05T23:57:33.814Z,99639.85
